Hauptseite
METAR-TAF:

METAR-TAF

Flughäfen :

Bozen, Italien

Breite: 46-28N, Länge: 011-20E, Höhe: 262 m

Beobachtung

Neuester Wetterbericht von vor 2 Stunden und 24 Minuten, um 20:50 UTC
Wind 2 kt aus unterschiedlichen Richtungen
Temperatur 19°C
Luftfeuchtigkeit 46%
Luftdruck 1018 hPa
Sichtweite 10 km oder mehr
keine Wolken unter 1500 m und keine Kumulonimbus oder Gewitterwolken

METAR: LIPB 212050Z VRB02KT CAVOK 19/07 Q1018

Zeit: 01:14 (23:14 UTC)

Prognose

Neuester Wetterbericht von vor 6 Stunden und 14 Minuten, um 17:00 UTC
Gültige Prognose vom 21 um 18 UTC bis 22 um 18 UTC
Wind 5 kt aus unterschiedlichen Richtungen
Sichtweite 10 km oder mehr
keine Wolken unter 1500 m und keine Kumulonimbus oder Gewitterwolken

TAF: LIPB 211700Z 2118/2218 VRB05KT CAVOK

Wetterbeobachtungen und Prognosen von mehr als 4000 Flughäfen (METAR und TAF Bericht).

Die verfügbaren Stationen werden durch gelbe und rote Markierungen auf der Karte dargestellt.

Führen Sie die Maus auf sie, um den Namen der Station zu sehen.

Darauf klicken, um die Beobachtung von Wetterbeobachtungen und Prognosen zu sehen.

Um die Karte zu ändern : klicken Sie auf den grünen Tasten mit einem schwarzen Kreuz Zum Vergrößern, auf den grünen Button mit einem Gedankenstrich zu verkleinern, oder auf die grünen Pfeile für benachbarte Karten.


METAR-TAF: